createdAt,value
2022-10-02T10:00:30.464Z,17.63
2022-10-02T10:03:36.505Z,17.27
2022-10-02T10:06:18.441Z,17.48
2022-10-02T10:09:14.749Z,18.07
2022-10-02T10:12:08.536Z,16.65
2022-10-02T10:14:36.976Z,24.27
2022-10-02T10:17:39.201Z,19.58
2022-10-02T10:20:27.875Z,27.73
2022-10-02T10:23:20.610Z,18.00
2022-10-02T10:26:16.284Z,25.23
2022-10-02T10:29:19.419Z,15.45
2022-10-02T10:35:01.234Z,21.80
2022-10-02T10:38:01.424Z,24.60
2022-10-02T10:40:53.899Z,17.10
2022-10-02T10:43:57.374Z,18.17
2022-10-02T10:46:45.264Z,19.40
2022-10-02T10:49:30.508Z,17.13
2022-10-02T10:52:32.940Z,17.10
2022-10-02T10:55:18.299Z,22.27
2022-10-02T10:58:11.068Z,21.67
2022-10-02T11:00:46.785Z,18.50
2022-10-02T11:03:32.724Z,22.83
2022-10-02T11:06:12.470Z,18.13
2022-10-02T11:09:16.791Z,20.70
2022-10-02T11:11:52.332Z,16.83
2022-10-02T11:15:03.476Z,20.70
2022-10-02T11:17:44.786Z,21.65
2022-10-02T11:20:30.277Z,25.80
2022-10-02T11:23:15.081Z,19.95
2022-10-02T11:25:59.773Z,21.80
2022-10-02T11:28:35.669Z,21.92
2022-10-02T11:31:11.496Z,17.35
2022-10-02T11:33:49.014Z,18.90
2022-10-02T11:36:44.489Z,24.77
2022-10-02T11:39:22.151Z,20.42
2022-10-02T11:42:42.076Z,18.48
2022-10-02T11:45:39.241Z,13.68
2022-10-02T11:48:15.708Z,16.65
2022-10-02T11:50:57.346Z,15.75
2022-10-02T11:53:34.544Z,11.10
2022-10-02T11:56:29.305Z,14.95
2022-10-02T11:59:39.065Z,16.98
2022-10-02T12:02:20.547Z,12.40
2022-10-02T12:05:08.339Z,15.50
2022-10-02T12:08:15.001Z,16.05
2022-10-02T12:11:06.538Z,26.00
2022-10-02T12:13:54.658Z,16.42
2022-10-02T12:16:36.604Z,23.55
2022-10-02T12:19:18.180Z,17.73
2022-10-02T12:22:25.541Z,19.40
2022-10-02T12:25:37.984Z,20.92
2022-10-02T12:28:27.595Z,18.73
2022-10-02T12:31:20.658Z,18.45
2022-10-02T12:34:05.893Z,18.73
2022-10-02T12:36:56.480Z,17.92
2022-10-02T12:39:54.748Z,19.83
2022-10-02T12:42:26.737Z,25.98
2022-10-02T12:45:31.499Z,17.10
2022-10-02T12:48:12.929Z,17.33
2022-10-02T12:51:05.889Z,15.73
2022-10-02T12:53:51.006Z,15.63
2022-10-02T12:56:36.609Z,20.95
2022-10-02T12:59:38.133Z,19.20
2022-10-02T13:02:55.999Z,18.63
2022-10-02T13:05:52.988Z,14.60
2022-10-02T13:08:58.912Z,17.25
2022-10-02T13:11:56.043Z,17.40
2022-10-02T13:14:55.197Z,16.05
2022-10-02T13:17:46.747Z,17.83
2022-10-02T13:20:27.432Z,15.65
2022-10-02T13:23:19.316Z,14.23
2022-10-02T13:25:58.764Z,16.83
2022-10-02T13:28:51.195Z,16.92
2022-10-02T13:31:23.936Z,18.55
2022-10-02T13:34:01.998Z,14.75
2022-10-02T13:36:34.593Z,14.15
2022-10-02T13:39:27.588Z,12.85
2022-10-02T13:42:21.613Z,13.95
2022-10-02T13:45:08.565Z,12.65
2022-10-02T13:47:35.493Z,15.13
2022-10-02T13:50:21.757Z,13.25
2022-10-02T13:52:58.477Z,13.10
2022-10-02T13:55:32.965Z,15.45
2022-10-02T13:58:33.365Z,15.02
2022-10-02T14:01:44.941Z,14.93
2022-10-02T14:04:46.342Z,11.52
2022-10-02T14:07:40.282Z,11.13
2022-10-02T14:10:10.796Z,12.48
2022-10-02T14:13:00.142Z,9.35
2022-10-02T14:15:42.135Z,10.40
2022-10-02T14:18:14.661Z,12.07
2022-10-02T14:24:10.858Z,6.97
2022-10-02T14:27:01.216Z,9.68
2022-10-02T14:29:29.040Z,13.65
2022-10-02T14:32:21.120Z,17.63
2022-10-02T14:34:55.625Z,9.20
2022-10-02T14:37:50.941Z,12.48
2022-10-02T14:40:19.583Z,11.40
2022-10-02T14:43:24.470Z,8.45
2022-10-02T14:46:03.176Z,9.02
2022-10-02T14:48:30.001Z,8.95
2022-10-02T14:51:33.332Z,9.05
2022-10-02T14:54:27.249Z,11.57
2022-10-02T14:56:59.949Z,12.48
2022-10-02T14:59:51.108Z,14.63
2022-10-02T15:02:49.747Z,7.65
2022-10-02T15:05:47.206Z,16.77
2022-10-02T15:08:48.223Z,9.90
2022-10-02T15:11:44.604Z,8.85
2022-10-02T15:14:35.521Z,14.20
2022-10-02T15:17:32.740Z,8.07
2022-10-02T15:20:36.427Z,11.65
2022-10-02T15:23:07.378Z,13.73
2022-10-02T15:26:29.364Z,14.35
2022-10-02T15:29:05.157Z,7.25
2022-10-02T15:32:06.816Z,7.55
2022-10-02T15:34:38.302Z,7.25
2022-10-02T15:37:17.779Z,12.15
2022-10-02T15:40:06.103Z,11.77
2022-10-02T15:42:58.886Z,8.68
2022-10-02T15:48:25.967Z,10.45
2022-10-02T15:51:17.640Z,8.70
2022-10-02T15:53:53.374Z,8.90
2022-10-02T15:56:33.193Z,14.52
2022-10-02T15:59:37.572Z,12.60
2022-10-02T16:02:07.311Z,14.15
2022-10-02T16:04:59.864Z,8.40
2022-10-02T16:08:05.664Z,13.50
2022-10-02T16:10:36.072Z,9.85
2022-10-02T16:13:21.385Z,17.35
2022-10-02T16:16:15.281Z,12.60
2022-10-02T16:18:55.708Z,10.02
2022-10-02T16:21:44.306Z,12.35
2022-10-02T16:24:36.256Z,10.27
2022-10-02T16:27:46.603Z,6.47
2022-10-02T16:30:19.415Z,12.23
2022-10-02T16:33:04.445Z,8.75
2022-10-02T16:35:43.673Z,10.10
2022-10-02T16:38:32.244Z,14.05
2022-10-02T16:41:03.900Z,10.90
2022-10-02T16:43:54.147Z,10.20
2022-10-02T16:46:44.139Z,7.35
2022-10-02T16:49:16.793Z,7.28
2022-10-02T16:52:01.181Z,8.52
2022-10-02T16:54:34.240Z,6.68
2022-10-02T16:57:06.910Z,11.68
2022-10-02T16:59:46.085Z,14.55
2022-10-02T17:02:26.423Z,6.32
2022-10-02T17:05:13.464Z,9.50
2022-10-02T17:08:03.386Z,6.05
2022-10-02T17:11:00.144Z,12.43
2022-10-02T17:13:33.284Z,5.63
2022-10-02T17:16:21.599Z,6.75
2022-10-02T17:19:00.053Z,7.20
2022-10-02T17:21:48.409Z,8.52
2022-10-02T17:24:41.738Z,4.55
2022-10-02T17:27:20.483Z,6.30
2022-10-02T17:29:59.065Z,16.13
2022-10-02T17:32:38.041Z,11.05
